Terminal Aerodrome Forecast
Issued by NWS

Home | Current Version | Previous Version | Text Only | Print | Product List | Glossary On
Versions: 1 2 3 4 5 6 7 8 9 10 11 12 13 14
000
FTUS45 KPSR 201245 AAA
TAFIPL
TAF AMD
KIPL 201245Z 2013/2112 26025G35KT 6SM HZ FEW250
      TEMPO 2013/2015 2SM BLDU
     FM201500 26017G25KT P6SM FEW250
     FM202000 26024G35KT P6SM FEW250
     FM210300 27015G22KT P6SM FEW250
     FM210900 27010KT P6SM FEW250=

USA.gov is the U.S. government's official web portal to all federal, state and local government web resources and services.